Louie C. — WDE7885 — position and weather

sailwx.info

Track history (hours):
 
Tides and Currents Weather Stations Pressure Air Temp Water Temp Dewpoint Dewpoint Depression Visibility Wind Speed Wind Dir Waves Ship Positions

Louie C.

Owner: Louie C., Bourg, LA. More information available from US FCC via Universal Licensing System and Coast Guard Vessel Documentation Center.

Last reported at 2017-Aug-21 22:57 UTC. Time now 2017-Sep-23 04:08 UTC.
Position N 29°32' W 090°50'.
Warning: this ship's position is 32 days out of date.

Length 11 m; draft 2 m.

Type: Other ship. MMSI: 367398920.

Date/timePositionNaut miles runAvg speedWind from/ knotsBaromVisibWave heightAir tempDewpointWater temp
2017-Aug-21 22:57N 29°32' W 090°50'3 7.2
2017-Aug-21 22:30N 29°32' W 090°46'3 6.2
2017-Aug-21 22:00N 29°34' W 090°43'3 5.4
2017-Aug-21 21:30N 29°36' W 090°43'3 5.7
2017-Aug-21 21:00N 29°36' W 090°39'3 6.3
2017-Aug-21 20:30N 29°35' W 090°36'7 0.4
2017-Aug-21 05:07N 29°34' W 090°28'1 5.3
2017-Aug-21 04:58N 29°34' W 090°29'2 5.3
2017-Aug-21 04:30N 29°34' W 090°32'3 5.2
2017-Aug-21 04:00N 29°34' W 090°35'2 4.5
2017-Aug-21 03:30N 29°35' W 090°37'3 5.3
2017-Aug-21 03:00N 29°36' W 090°40'2 4.3
2017-Aug-21 02:30N 29°36' W 090°43'3 5.3
2017-Aug-21 02:00N 29°34' W 090°43'3 5.2
2017-Aug-21 01:30N 29°32' W 090°46'3 5.6
2017-Aug-21 01:00N 29°32' W 090°49'3 5.6
2017-Aug-21 00:28N 29°32' W 090°52'61 4.2
2017-Aug-20 09:53N 29°50' W 091°59'2 4.9
2017-Aug-20 09:26N 29°49' W 092°02'2 5.2
2017-Aug-20 09:00N 29°48' W 092°04'3 5.4
2017-Aug-20 08:30N 29°47' W 092°07'3 5.7
2017-Aug-20 08:00N 29°47' W 092°10'3 5.5
2017-Aug-20 07:30N 29°47' W 092°13'3 5.7
2017-Aug-20 06:56N 29°49' W 092°17'44 5.0
2017-Aug-19 22:02N 29°56' W 093°07'0 5.1
2017-Aug-19 22:00N 29°56' W 093°07'2 4.9
2017-Aug-19 21:30N 29°56' W 093°10'3 5.2
2017-Aug-19 21:00N 29°58' W 093°12'3 5.1
2017-Aug-19 20:30N 30°00' W 093°14'2 4.8
2017-Aug-19 20:00N 30°02' W 093°15'2 4.8
2017-Aug-19 19:30N 30°04' W 093°16'2 4.1
2017-Aug-19 19:00N 30°06' W 093°18'0 0.0
2017-Aug-19 18:30N 30°06' W 093°18'0 0.0
2017-Aug-19 18:00N 30°06' W 093°18'1 1.7
2017-Aug-19 17:30N 30°06' W 093°19'2 4.5
2017-Aug-19 17:00N 30°08' W 093°20'2 3.8
2017-Aug-19 16:30N 30°10' W 093°19'0 0.2
2017-Aug-19 16:00N 30°10' W 093°19'0 0.0
2017-Aug-19 15:30N 30°10' W 093°19'0 0.0
2017-Aug-19 15:00N 30°10' W 093°19'0 0.0
2017-Aug-19 13:59N 30°10' W 093°19'0 0.0
2017-Aug-19 13:30N 30°10' W 093°19'0 0.0
2017-Aug-19 13:00N 30°10' W 093°19'0 0.0
2017-Aug-19 12:30N 30°10' W 093°19'0 0.0
2017-Aug-19 12:00N 30°10' W 093°19'0 0.0
2017-Aug-19 11:30N 30°10' W 093°19'0 0.0
2017-Aug-19 11:00N 30°10' W 093°19'0 0.0
2017-Aug-19 10:30N 30°10' W 093°19'0 0.0
2017-Aug-19 10:00N 30°10' W 093°19'0 0.0
2017-Aug-19 09:30N 30°10' W 093°19'0 0.0
2017-Aug-19 09:00N 30°10' W 093°19'0 0.0
2017-Aug-19 08:30N 30°10' W 093°19'0 0.0
2017-Aug-19 08:00N 30°10' W 093°19'0 0.0
2017-Aug-19 07:30N 30°10' W 093°19'0 0.0
2017-Aug-19 07:00N 30°10' W 093°19'0 0.0
2017-Aug-19 06:30N 30°10' W 093°19'0 0.0
2017-Aug-19 06:00N 30°10' W 093°19'0 0.0
2017-Aug-19 05:30N 30°10' W 093°19'0 0.0
2017-Aug-19 05:00N 30°10' W 093°19'0 0.0
2017-Aug-19 04:30N 30°10' W 093°19'1 2.5
2017-Aug-19 04:00N 30°09' W 093°20'2 3.3
2017-Aug-19 03:30N 30°07' W 093°20'1 3.0
2017-Aug-19 03:00N 30°06' W 093°19'2 4.4
2017-Aug-19 02:30N 30°05' W 093°17'1 1.7
2017-Aug-19 02:00N 30°04' W 093°16'3 5.3
2017-Aug-19 01:30N 30°02' W 093°15'3 5.0
2017-Aug-19 01:00N 29°60' W 093°13'2 3.5
2017-Aug-19 00:25N 29°58' W 093°11'3 5.2
2017-Aug-18 23:54N 29°56' W 093°09'2 5.1
2017-Aug-18 23:27N 29°56' W 093°07'41 4.7
2017-Aug-18 14:42N 29°50' W 092°20'1 5.0
2017-Aug-18 14:27N 29°50' W 092°18'5 5.0
2017-Aug-18 13:30N 29°48' W 092°14'2 3.2
2017-Aug-18 13:00N 29°47' W 092°12'2 3.7
2017-Aug-18 12:30N 29°47' W 092°10'3 5.2
2017-Aug-18 11:59N 29°47' W 092°07'68 4.5
2017-Aug-17 20:53N 29°32' W 090°50'2 4.8
2017-Aug-17 20:30N 29°32' W 090°48'2 4.5
2017-Aug-17 20:00N 29°32' W 090°46'2 4.4
2017-Aug-17 19:30N 29°34' W 090°44'0 0.7
2017-Aug-17 19:00N 29°34' W 090°43'3 6.6
2017-Aug-17 18:30N 29°32' W 090°46'5 7.5
2017-Aug-17 17:53N 29°32' W 090°52'  
Track history (hours):
 
Tides and Currents Weather Stations Pressure Air Temp Water Temp Dewpoint Dewpoint Depression Visibility Wind Speed Wind Dir Waves Ship Positions

Louie C.

Owner: Louie C., Bourg, LA. More information available from US FCC via Universal Licensing System and Coast Guard Vessel Documentation Center.

Last reported at 2017-Aug-21 22:57 UTC. Time now 2017-Sep-23 04:08 UTC.
Position N 29°32' W 090°50'.
Warning: this ship's position is 32 days out of date.

Length 11 m; draft 2 m.

Type: Other ship. MMSI: 367398920.

Date/timePositionNaut miles runAvg speedWind from/ knotsBaromVisibWave heightAir tempDewpointWater temp
2017-Aug-21 22:57N 29°32' W 090°50'3 7.2
2017-Aug-21 22:30N 29°32' W 090°46'3 6.2
2017-Aug-21 22:00N 29°34' W 090°43'3 5.4
2017-Aug-21 21:30N 29°36' W 090°43'3 5.7
2017-Aug-21 21:00N 29°36' W 090°39'3 6.3
2017-Aug-21 20:30N 29°35' W 090°36'7 0.4
2017-Aug-21 05:07N 29°34' W 090°28'1 5.3
2017-Aug-21 04:58N 29°34' W 090°29'2 5.3
2017-Aug-21 04:30N 29°34' W 090°32'3 5.2
2017-Aug-21 04:00N 29°34' W 090°35'2 4.5
2017-Aug-21 03:30N 29°35' W 090°37'3 5.3
2017-Aug-21 03:00N 29°36' W 090°40'2 4.3
2017-Aug-21 02:30N 29°36' W 090°43'3 5.3
2017-Aug-21 02:00N 29°34' W 090°43'3 5.2
2017-Aug-21 01:30N 29°32' W 090°46'3 5.6
2017-Aug-21 01:00N 29°32' W 090°49'3 5.6
2017-Aug-21 00:28N 29°32' W 090°52'61 4.2
2017-Aug-20 09:53N 29°50' W 091°59'2 4.9
2017-Aug-20 09:26N 29°49' W 092°02'2 5.2
2017-Aug-20 09:00N 29°48' W 092°04'3 5.4
2017-Aug-20 08:30N 29°47' W 092°07'3 5.7
2017-Aug-20 08:00N 29°47' W 092°10'3 5.5
2017-Aug-20 07:30N 29°47' W 092°13'3 5.7
2017-Aug-20 06:56N 29°49' W 092°17'44 5.0
2017-Aug-19 22:02N 29°56' W 093°07'0 5.1
2017-Aug-19 22:00N 29°56' W 093°07'2 4.9
2017-Aug-19 21:30N 29°56' W 093°10'3 5.2
2017-Aug-19 21:00N 29°58' W 093°12'3 5.1
2017-Aug-19 20:30N 30°00' W 093°14'2 4.8
2017-Aug-19 20:00N 30°02' W 093°15'2 4.8
2017-Aug-19 19:30N 30°04' W 093°16'2 4.1
2017-Aug-19 19:00N 30°06' W 093°18'0 0.0
2017-Aug-19 18:30N 30°06' W 093°18'0 0.0
2017-Aug-19 18:00N 30°06' W 093°18'1 1.7
2017-Aug-19 17:30N 30°06' W 093°19'2 4.5
2017-Aug-19 17:00N 30°08' W 093°20'2 3.8
2017-Aug-19 16:30N 30°10' W 093°19'0 0.2
2017-Aug-19 16:00N 30°10' W 093°19'0 0.0
2017-Aug-19 15:30N 30°10' W 093°19'0 0.0
2017-Aug-19 15:00N 30°10' W 093°19'0 0.0
2017-Aug-19 13:59N 30°10' W 093°19'0 0.0
2017-Aug-19 13:30N 30°10' W 093°19'0 0.0
2017-Aug-19 13:00N 30°10' W 093°19'0 0.0
2017-Aug-19 12:30N 30°10' W 093°19'0 0.0
2017-Aug-19 12:00N 30°10' W 093°19'0 0.0
2017-Aug-19 11:30N 30°10' W 093°19'0 0.0
2017-Aug-19 11:00N 30°10' W 093°19'0 0.0
2017-Aug-19 10:30N 30°10' W 093°19'0 0.0
2017-Aug-19 10:00N 30°10' W 093°19'0 0.0
2017-Aug-19 09:30N 30°10' W 093°19'0 0.0
2017-Aug-19 09:00N 30°10' W 093°19'0 0.0
2017-Aug-19 08:30N 30°10' W 093°19'0 0.0
2017-Aug-19 08:00N 30°10' W 093°19'0 0.0
2017-Aug-19 07:30N 30°10' W 093°19'0 0.0
2017-Aug-19 07:00N 30°10' W 093°19'0 0.0
2017-Aug-19 06:30N 30°10' W 093°19'0 0.0
2017-Aug-19 06:00N 30°10' W 093°19'0 0.0
2017-Aug-19 05:30N 30°10' W 093°19'0 0.0
2017-Aug-19 05:00N 30°10' W 093°19'0 0.0
2017-Aug-19 04:30N 30°10' W 093°19'1 2.5
2017-Aug-19 04:00N 30°09' W 093°20'2 3.3
2017-Aug-19 03:30N 30°07' W 093°20'1 3.0
2017-Aug-19 03:00N 30°06' W 093°19'2 4.4
2017-Aug-19 02:30N 30°05' W 093°17'1 1.7
2017-Aug-19 02:00N 30°04' W 093°16'3 5.3
2017-Aug-19 01:30N 30°02' W 093°15'3 5.0
2017-Aug-19 01:00N 29°60' W 093°13'2 3.5
2017-Aug-19 00:25N 29°58' W 093°11'3 5.2
2017-Aug-18 23:54N 29°56' W 093°09'2 5.1
2017-Aug-18 23:27N 29°56' W 093°07'41 4.7
2017-Aug-18 14:42N 29°50' W 092°20'1 5.0
2017-Aug-18 14:27N 29°50' W 092°18'5 5.0
2017-Aug-18 13:30N 29°48' W 092°14'2 3.2
2017-Aug-18 13:00N 29°47' W 092°12'2 3.7
2017-Aug-18 12:30N 29°47' W 092°10'3 5.2
2017-Aug-18 11:59N 29°47' W 092°07'68 4.5
2017-Aug-17 20:53N 29°32' W 090°50'2 4.8
2017-Aug-17 20:30N 29°32' W 090°48'2 4.5
2017-Aug-17 20:00N 29°32' W 090°46'2 4.4
2017-Aug-17 19:30N 29°34' W 090°44'0 0.7
2017-Aug-17 19:00N 29°34' W 090°43'3 6.6
2017-Aug-17 18:30N 29°32' W 090°46'5 7.5
2017-Aug-17 17:53N 29°32' W 090°52'  

Dump ship's entire track history